createdAt,value
2024-04-19T00:06:53.120Z,5.54
2024-04-19T00:17:00.759Z,5.69
2024-04-19T00:27:10.678Z,5.74
2024-04-19T00:37:28.132Z,5.62
2024-04-19T00:47:33.228Z,5.48
2024-04-19T00:57:41.234Z,5.61
2024-04-19T01:07:46.178Z,5.55
2024-04-19T01:17:53.803Z,5.65
2024-04-19T01:28:01.182Z,5.76
2024-04-19T01:38:09.860Z,5.71
2024-04-19T01:48:17.300Z,5.77
2024-04-19T01:58:22.117Z,5.60
2024-04-19T02:08:30.493Z,5.64
2024-04-19T02:18:35.282Z,5.60
2024-04-19T02:28:59.374Z,5.71
2024-04-19T02:39:04.136Z,5.64
2024-04-19T02:49:11.464Z,5.62
2024-04-19T02:59:21.900Z,5.56
2024-04-19T03:09:31.955Z,5.48
2024-04-19T03:19:36.650Z,5.55
2024-04-19T03:29:44.130Z,5.59
2024-04-19T03:39:49.041Z,5.56
2024-04-19T03:49:56.850Z,5.56
2024-04-19T04:00:02.685Z,5.66
2024-04-19T04:10:22.003Z,5.89
2024-04-19T04:20:26.807Z,6.04
2024-04-19T04:30:34.381Z,6.17
2024-04-19T04:40:39.195Z,6.09
2024-04-19T04:50:46.616Z,5.86
2024-04-19T05:00:52.519Z,5.67
2024-04-19T05:11:02.027Z,5.33
2024-04-19T05:31:48.149Z,5.09
2024-04-19T05:41:53.047Z,4.67
2024-04-19T05:52:00.433Z,4.52
2024-04-19T06:02:06.536Z,4.61
2024-04-19T06:12:43.702Z,4.72
2024-04-19T06:22:48.473Z,4.76
2024-04-19T06:32:56.100Z,4.87
2024-04-19T06:43:27.886Z,4.90
2024-04-19T06:53:35.309Z,5.02
2024-04-19T07:03:40.266Z,4.97
2024-04-19T07:13:48.947Z,4.98
2024-04-19T07:23:53.801Z,5.00
2024-04-19T07:34:04.800Z,5.15
2024-04-19T07:44:34.416Z,5.18
2024-04-19T07:54:43.623Z,5.28
2024-04-19T08:04:48.907Z,5.28
2024-04-19T08:14:56.513Z,5.42
2024-04-19T08:25:01.310Z,5.55
2024-04-19T08:35:08.925Z,5.45
2024-04-19T08:45:14.864Z,5.61
2024-04-19T08:55:22.742Z,5.47
2024-04-19T09:05:27.580Z,5.59
2024-04-19T09:15:37.972Z,5.61
2024-04-19T09:25:43.256Z,5.60
2024-04-19T09:35:55.502Z,5.47
2024-04-19T09:46:00.461Z,5.68
2024-04-19T09:56:19.136Z,5.78
2024-04-19T10:06:27.081Z,5.82
2024-04-19T10:16:34.619Z,5.83
2024-04-19T10:26:39.531Z,6.24
2024-04-19T10:36:47.099Z,6.04
2024-04-19T10:46:52.784Z,6.32
2024-04-19T10:57:02.760Z,6.47
2024-04-19T11:07:08.087Z,6.71
2024-04-19T11:17:15.497Z,6.81
2024-04-19T11:27:20.288Z,6.85
2024-04-19T11:37:27.649Z,6.81
2024-04-19T11:47:33.292Z,6.77
2024-04-19T11:57:41.572Z,6.83
2024-04-19T12:07:46.576Z,6.99
2024-04-19T12:17:55.811Z,7.08
2024-04-19T12:28:03.900Z,7.15
2024-04-19T12:38:11.360Z,7.28
2024-04-19T12:48:21.085Z,7.61
2024-04-19T12:58:28.833Z,7.60
2024-04-19T13:08:36.807Z,7.80
2024-04-19T13:18:46.529Z,7.68
2024-04-19T13:28:53.418Z,7.60
2024-04-19T13:39:00.805Z,7.47
2024-04-19T13:49:05.504Z,7.55
2024-04-19T13:59:15.538Z,7.57
2024-04-19T14:09:46.438Z,7.66
2024-04-19T14:19:55.297Z,7.87
2024-04-19T14:30:00.057Z,7.94
2024-04-19T14:40:33.454Z,8.60
2024-04-19T14:50:38.536Z,8.70
2024-04-19T15:00:47.216Z,8.90
2024-04-19T15:10:54.548Z,8.23
2024-04-19T15:21:03.328Z,8.02
2024-04-19T15:31:09.526Z,8.09
2024-04-19T15:41:19.446Z,7.84
2024-04-19T15:51:24.904Z,7.76
2024-04-19T16:01:40.060Z,8.60
2024-04-19T16:11:45.133Z,8.51
2024-04-19T16:21:52.607Z,8.16
2024-04-19T16:31:58.538Z,7.70
2024-04-19T16:42:06.232Z,7.51
2024-04-19T16:52:11.728Z,7.65
2024-04-19T17:02:19.119Z,10.98
2024-04-19T17:12:24.870Z,10.11
2024-04-19T17:22:32.309Z,11.41
2024-04-19T17:32:38.016Z,12.67
2024-04-19T17:42:50.862Z,12.34
2024-04-19T17:52:55.851Z,8.73
2024-04-19T18:03:05.497Z,8.15
2024-04-19T18:13:10.230Z,7.53
2024-04-19T18:23:17.542Z,7.38
2024-04-19T18:33:22.689Z,7.13
2024-04-19T18:43:32.110Z,6.98
2024-04-19T18:53:36.758Z,6.71
2024-04-19T19:03:45.416Z,6.61
2024-04-19T19:13:50.519Z,6.48
2024-04-19T19:23:57.796Z,6.61
2024-04-19T19:34:03.174Z,6.60
2024-04-19T19:44:11.343Z,6.54
2024-04-19T19:54:16.056Z,6.51
2024-04-19T20:04:39.543Z,6.44
2024-04-19T20:14:44.290Z,6.58
2024-04-19T20:24:51.731Z,6.53
2024-04-19T20:34:56.459Z,6.52
2024-04-19T20:45:03.770Z,6.44
2024-04-19T20:55:08.730Z,6.51
2024-04-19T21:05:16.050Z,6.44
2024-04-19T21:15:20.756Z,6.38
2024-04-19T21:25:28.102Z,6.15
2024-04-19T21:35:32.884Z,6.00
2024-04-19T21:45:44.112Z,5.97
2024-04-19T21:55:49.290Z,5.90
2024-04-19T22:05:56.827Z,5.84
2024-04-19T22:16:28.373Z,5.70
2024-04-19T22:26:35.783Z,5.65
2024-04-19T22:36:41.228Z,5.67
2024-04-19T22:46:52.154Z,5.65
2024-04-19T22:56:56.851Z,5.77
2024-04-19T23:07:26.237Z,5.85
2024-04-19T23:17:31.691Z,5.79
2024-04-19T23:27:39.414Z,5.78
2024-04-19T23:37:44.147Z,5.86
2024-04-19T23:47:51.579Z,5.99
2024-04-19T23:57:58.110Z,6.08
